Buxtehude — V2BY8 — position and weather

sailwx.info

Track history (hours):
 
Tides and Currents Weather Stations Pressure Air Temp Water Temp Dewpoint Dewpoint Depression Visibility Wind Speed Wind Dir Waves Ship Positions

Buxtehude

Last reported at 2017-May-20 04:35 UTC. Time now 2017-May-23 17:04 UTC.
Position N 46°13' E 030°56'.

Length 134 m; draft 8.3 m.

Type: Ship (hazmat cat A). MMSI: 304962000.

Date/timePositionNaut miles runAvg speedWind from/ knotsBaromVisibWave heightAir tempDewpointWater temp
2017-May-20 04:35N 46°13' E 030°56'215.8
2017-May-20 04:29N 46°14' E 030°55'816.1
2017-May-20 04:00N 46°22' E 030°52'815.7
2017-May-20 03:30N 46°29' E 030°48'2 3.0
2017-May-20 02:58N 46°29' E 030°45'0 0.0
2017-May-20 02:22N 46°29' E 030°45'0 0.0
2017-May-20 01:58N 46°29' E 030°45'0 0.0
2017-May-20 01:24N 46°29' E 030°45'0 0.0
2017-May-20 00:57N 46°29' E 030°45'0 0.0
2017-May-20 00:30N 46°29' E 030°45'0 0.0
2017-May-19 23:57N 46°29' E 030°45'0 0.0
2017-May-19 23:26N 46°29' E 030°45'0 0.0
2017-May-19 22:59N 46°29' E 030°45'0 0.0
2017-May-19 22:29N 46°29' E 030°45'0 0.1
2017-May-19 21:56N 46°29' E 030°45'0 0.1
2017-May-19 21:26N 46°29' E 030°45'0 0.0
2017-May-19 20:55N 46°29' E 030°45'0 0.0
2017-May-19 20:28N 46°29' E 030°45'0 0.0
2017-May-19 19:58N 46°29' E 030°45'0 0.0
2017-May-19 19:28N 46°29' E 030°45'0 0.0
2017-May-19 18:58N 46°29' E 030°45'0 0.2
2017-May-19 18:30N 46°29' E 030°45'0 0.0
2017-May-19 18:00N 46°29' E 030°45'0 0.1
2017-May-19 17:30N 46°29' E 030°45'0 0.0
2017-May-19 17:00N 46°29' E 030°45'0 0.1
2017-May-19 16:27N 46°29' E 030°45'0 0.1
2017-May-19 15:56N 46°29' E 030°45'0 0.0
2017-May-19 15:30N 46°29' E 030°45'1 2.3
2017-May-19 15:00N 46°30' E 030°46'1211.9
2017-May-19 14:00N 46°18' E 030°44'3 5.9
2017-May-19 13:28N 46°20' E 030°40'0 0.1
2017-May-19 13:00N 46°20' E 030°40'0 0.0
2017-May-19 12:25N 46°20' E 030°40'0 0.0
2017-May-19 12:00N 46°20' E 030°40'0 0.0
2017-May-19 11:29N 46°20' E 030°40'1 0.6
2017-May-19 09:28N 46°19' E 030°41'6 8.6
2017-May-19 08:44N 46°18' E 030°50'314.0
2017-May-19 08:30N 46°17' E 030°55'  
2017-May-15 21:21N 37°29' E 024°02'615.6
2017-May-15 20:59N 37°24' E 023°58'815.5
2017-May-15 20:30N 37°18' E 023°53'815.5
2017-May-15 20:00N 37°11' E 023°48'815.7
2017-May-15 19:30N 37°04' E 023°43'1415.7
2017-May-15 18:36N 36°52' E 023°34'215.9
2017-May-15 18:30N 36°51' E 023°33'35815.2
2017-May-14 18:58N 37°46' E 016°08'715.5
2017-May-14 18:30N 37°48' E 015°59'815.8
2017-May-14 18:01N 37°50' E 015°49'815.5
2017-May-14 17:30N 37°52' E 015°40'816.2
2017-May-14 17:00N 37°59' E 015°34'816.2
2017-May-14 16:30N 38°07' E 015°34'816.3
2017-May-14 16:00N 38°15' E 015°37'815.1
2017-May-14 15:30N 38°20' E 015°44'815.8
2017-May-14 15:00N 38°26' E 015°51'3 7.0
2017-May-14 14:30N 38°28' E 015°54'0 0.1
2017-May-14 13:28N 38°28' E 015°55'0 0.0
2017-May-14 12:58N 38°28' E 015°55'0 0.0
2017-May-14 12:30N 38°28' E 015°55'0 0.0
2017-May-14 12:00N 38°28' E 015°55'0 0.0
2017-May-14 11:30N 38°28' E 015°55'0 0.0
2017-May-14 11:00N 38°28' E 015°55'0 0.0
2017-May-14 10:30N 38°28' E 015°55'0 0.0
2017-May-14 10:00N 38°28' E 015°55'0 0.0
2017-May-14 09:30N 38°28' E 015°55'0 0.0
2017-May-14 09:00N 38°28' E 015°55'0 0.0
2017-May-14 08:30N 38°28' E 015°55'0 0.0
2017-May-14 08:00N 38°28' E 015°55'0 0.0
2017-May-14 07:30N 38°28' E 015°55'0 0.0
2017-May-14 07:00N 38°28' E 015°55'0 0.0
2017-May-14 06:30N 38°28' E 015°55'0 0.0
2017-May-14 06:00N 38°28' E 015°55'0 0.0
2017-May-14 05:30N 38°28' E 015°55'0 0.0
2017-May-14 04:59N 38°28' E 015°55'0 0.0
2017-May-14 04:30N 38°28' E 015°55'0 0.0
2017-May-14 04:00N 38°28' E 015°55'0 0.0
2017-May-14 03:30N 38°28' E 015°55'0 0.0
2017-May-14 03:00N 38°28' E 015°55'0 0.0
2017-May-14 02:30N 38°28' E 015°55'0 0.0
2017-May-14 01:58N 38°28' E 015°55'0 0.0
2017-May-14 01:30N 38°28' E 015°55'0 0.0
2017-May-14 01:00N 38°28' E 015°55'0 0.0
2017-May-14 00:30N 38°28' E 015°55'0 0.0
2017-May-14 00:00N 38°28' E 015°55'0 0.0
2017-May-13 23:30N 38°28' E 015°55'0 0.0
2017-May-13 23:00N 38°28' E 015°55'0 0.0
2017-May-13 22:30N 38°28' E 015°55'0 0.0
2017-May-13 22:00N 38°28' E 015°55'0 0.0
2017-May-13 21:31N 38°28' E 015°54'2 3.1
2017-May-13 21:00N 38°27' E 015°53'1 2.4
2017-May-13 20:30N 38°27' E 015°52'713.2
2017-May-13 20:00N 38°32' E 015°46'714.5
2017-May-13 19:30N 38°38' E 015°41'0 0.4
2017-May-13 18:59N 38°38' E 015°41'0 0.2
2017-May-13 18:30N 38°38' E 015°41'0 0.2
2017-May-13 18:00N 38°38' E 015°41'0 0.2
2017-May-13 17:30N 38°38' E 015°42'0 0.1
2017-May-13 17:00N 38°38' E 015°42'0 0.3
2017-May-13 16:30N 38°39' E 015°41'0 0.2
2017-May-13 15:59N 38°39' E 015°41'0 0.2
2017-May-13 15:30N 38°39' E 015°41'0 0.3
2017-May-13 14:59N 38°38' E 015°41'0 0.3
2017-May-13 14:30N 38°38' E 015°41'0 0.3
2017-May-13 13:30N 38°38' E 015°41'0 0.3
2017-May-13 13:00N 38°38' E 015°41'0 0.4
2017-May-13 12:30N 38°38' E 015°41'0 0.3
2017-May-13 12:00N 38°38' E 015°40'0 0.4
2017-May-13 11:31N 38°37' E 015°40'0 0.5
2017-May-13 11:00N 38°37' E 015°40'0 0.5
2017-May-13 10:31N 38°37' E 015°40'0 0.6
2017-May-13 10:01N 38°37' E 015°40'0 0.7
2017-May-13 09:30N 38°36' E 015°40'0 0.7
2017-May-13 09:00N 38°36' E 015°40'0 0.9
2017-May-13 08:31N 38°36' E 015°40'0 0.8
2017-May-13 08:00N 38°35' E 015°40'0 0.7
2017-May-13 07:31N 38°35' E 015°41'0 0.8
2017-May-13 07:01N 38°35' E 015°41'0 0.8
2017-May-13 06:30N 38°34' E 015°41'0 1.0
2017-May-13 06:00N 38°34' E 015°42'1 1.1
2017-May-13 05:31N 38°33' E 015°42'0 0.9
2017-May-13 05:00N 38°33' E 015°42'0 0.9
2017-May-13 04:30N 38°33' E 015°43'0 1.0
2017-May-13 04:01N 38°32' E 015°43'0 0.9
2017-May-13 03:31N 38°32' E 015°44'0 0.9
2017-May-13 03:01N 38°32' E 015°44'0 0.7
2017-May-13 02:30N 38°32' E 015°45'0 0.8
2017-May-13 02:00N 38°31' E 015°45'0 0.7
2017-May-13 01:30N 38°31' E 015°45'0 0.8
2017-May-13 01:00N 38°31' E 015°45'0 0.6
2017-May-13 00:30N 38°30' E 015°45'0 0.8
2017-May-13 00:00N 38°30' E 015°45'0 0.6
2017-May-12 23:31N 38°30' E 015°45'0 0.7
2017-May-12 23:01N 38°29' E 015°45'0 0.5
2017-May-12 22:30N 38°29' E 015°45'0 0.8
2017-May-12 22:01N 38°29' E 015°44'1 1.6
2017-May-12 21:30N 38°30' E 015°44'612.5
2017-May-12 21:00N 38°35' E 015°41'3 6.2
2017-May-12 20:30N 38°38' E 015°39'0 0.9
2017-May-12 20:00N 38°38' E 015°38'0 0.9
2017-May-12 19:30N 38°37' E 015°38'0 0.9
2017-May-12 19:00N 38°37' E 015°38'0 0.9
2017-May-12 18:30N 38°36' E 015°37'0 0.9
2017-May-12 18:00N 38°36' E 015°37'0 0.8
2017-May-12 17:31N 38°36' E 015°37'0 0.8
2017-May-12 17:01N 38°35' E 015°38'0 0.9
2017-May-12 16:31N 38°35' E 015°38'0 1.0
2017-May-12 16:00N 38°35' E 015°39'0 0.9
2017-May-12 15:30N 38°35' E 015°39'0 0.9
2017-May-12 15:00N 38°34' E 015°40'0 1.0
2017-May-12 14:30N 38°34' E 015°40'1 1.1
2017-May-12 13:30N 38°33' E 015°41'0 0.8
2017-May-12 13:00N 38°33' E 015°41'0 0.8
2017-May-12 12:29N 38°32' E 015°41'0 0.6
2017-May-12 12:01N 38°32' E 015°42'0 0.5
2017-May-12 11:31N 38°32' E 015°42'0 0.3
2017-May-12 10:59N 38°32' E 015°42'0 0.3
2017-May-12 10:30N 38°32' E 015°42'0 0.6
2017-May-12 10:01N 38°32' E 015°43'0 0.5
2017-May-12 09:31N 38°32' E 015°43'0 0.6
2017-May-12 09:00N 38°31' E 015°43'0 0.8
2017-May-12 08:31N 38°31' E 015°43'0 0.7
2017-May-12 08:00N 38°31' E 015°43'0 0.4
2017-May-12 07:31N 38°31' E 015°43'0 0.6
2017-May-12 07:00N 38°30' E 015°43'0 0.6
2017-May-12 06:31N 38°30' E 015°43'2 4.1
2017-May-12 06:00N 38°28' E 015°43'714.4
2017-May-12 05:30N 38°21' E 015°42'612.5
2017-May-12 05:00N 38°15' E 015°40'611.9
2017-May-12 04:30N 38°10' E 015°36'612.2
2017-May-12 04:00N 38°03' E 015°36'612.5
2017-May-12 03:30N 37°57' E 015°37'612.6
2017-May-12 03:00N 37°52' E 015°41'713.1
2017-May-12 02:30N 37°50' E 015°49'713.6
2017-May-12 02:00N 37°48' E 015°57'713.7
2017-May-12 01:30N 37°46' E 016°05'11413.4
2017-May-11 17:00N 37°18' E 018°24'713.6
2017-May-11 16:29N 37°16' E 018°33'251 9.6
2017-May-10 14:31N 37°09' E 023°47'813.9
2017-May-10 13:57N 37°15' E 023°53'4 9.7
2017-May-10 13:29N 37°19' E 023°56'5 9.1
2017-May-10 12:58N 37°23' E 023°59'4 9.2
2017-May-10 12:30N 37°26' E 024°02'2012.1
2017-May-10 10:48N 37°43' E 024°16'  
Track history (hours):
 
Tides and Currents Weather Stations Pressure Air Temp Water Temp Dewpoint Dewpoint Depression Visibility Wind Speed Wind Dir Waves Ship Positions

Buxtehude

Last reported at 2017-May-20 04:35 UTC. Time now 2017-May-23 17:04 UTC.
Position N 46°13' E 030°56'.

Length 134 m; draft 8.3 m.

Type: Ship (hazmat cat A). MMSI: 304962000.

Date/timePositionNaut miles runAvg speedWind from/ knotsBaromVisibWave heightAir tempDewpointWater temp
2017-May-20 04:35N 46°13' E 030°56'215.8
2017-May-20 04:29N 46°14' E 030°55'816.1
2017-May-20 04:00N 46°22' E 030°52'815.7
2017-May-20 03:30N 46°29' E 030°48'2 3.0
2017-May-20 02:58N 46°29' E 030°45'0 0.0
2017-May-20 02:22N 46°29' E 030°45'0 0.0
2017-May-20 01:58N 46°29' E 030°45'0 0.0
2017-May-20 01:24N 46°29' E 030°45'0 0.0
2017-May-20 00:57N 46°29' E 030°45'0 0.0
2017-May-20 00:30N 46°29' E 030°45'0 0.0
2017-May-19 23:57N 46°29' E 030°45'0 0.0
2017-May-19 23:26N 46°29' E 030°45'0 0.0
2017-May-19 22:59N 46°29' E 030°45'0 0.0
2017-May-19 22:29N 46°29' E 030°45'0 0.1
2017-May-19 21:56N 46°29' E 030°45'0 0.1
2017-May-19 21:26N 46°29' E 030°45'0 0.0
2017-May-19 20:55N 46°29' E 030°45'0 0.0
2017-May-19 20:28N 46°29' E 030°45'0 0.0
2017-May-19 19:58N 46°29' E 030°45'0 0.0
2017-May-19 19:28N 46°29' E 030°45'0 0.0
2017-May-19 18:58N 46°29' E 030°45'0 0.2
2017-May-19 18:30N 46°29' E 030°45'0 0.0
2017-May-19 18:00N 46°29' E 030°45'0 0.1
2017-May-19 17:30N 46°29' E 030°45'0 0.0
2017-May-19 17:00N 46°29' E 030°45'0 0.1
2017-May-19 16:27N 46°29' E 030°45'0 0.1
2017-May-19 15:56N 46°29' E 030°45'0 0.0
2017-May-19 15:30N 46°29' E 030°45'1 2.3
2017-May-19 15:00N 46°30' E 030°46'1211.9
2017-May-19 14:00N 46°18' E 030°44'3 5.9
2017-May-19 13:28N 46°20' E 030°40'0 0.1
2017-May-19 13:00N 46°20' E 030°40'0 0.0
2017-May-19 12:25N 46°20' E 030°40'0 0.0
2017-May-19 12:00N 46°20' E 030°40'0 0.0
2017-May-19 11:29N 46°20' E 030°40'1 0.6
2017-May-19 09:28N 46°19' E 030°41'6 8.6
2017-May-19 08:44N 46°18' E 030°50'314.0
2017-May-19 08:30N 46°17' E 030°55'  
2017-May-15 21:21N 37°29' E 024°02'615.6
2017-May-15 20:59N 37°24' E 023°58'815.5
2017-May-15 20:30N 37°18' E 023°53'815.5
2017-May-15 20:00N 37°11' E 023°48'815.7
2017-May-15 19:30N 37°04' E 023°43'1415.7
2017-May-15 18:36N 36°52' E 023°34'215.9
2017-May-15 18:30N 36°51' E 023°33'35815.2
2017-May-14 18:58N 37°46' E 016°08'715.5
2017-May-14 18:30N 37°48' E 015°59'815.8
2017-May-14 18:01N 37°50' E 015°49'815.5
2017-May-14 17:30N 37°52' E 015°40'816.2
2017-May-14 17:00N 37°59' E 015°34'816.2
2017-May-14 16:30N 38°07' E 015°34'816.3
2017-May-14 16:00N 38°15' E 015°37'815.1
2017-May-14 15:30N 38°20' E 015°44'815.8
2017-May-14 15:00N 38°26' E 015°51'3 7.0
2017-May-14 14:30N 38°28' E 015°54'0 0.1
2017-May-14 13:28N 38°28' E 015°55'0 0.0
2017-May-14 12:58N 38°28' E 015°55'0 0.0
2017-May-14 12:30N 38°28' E 015°55'0 0.0
2017-May-14 12:00N 38°28' E 015°55'0 0.0
2017-May-14 11:30N 38°28' E 015°55'0 0.0
2017-May-14 11:00N 38°28' E 015°55'0 0.0
2017-May-14 10:30N 38°28' E 015°55'0 0.0
2017-May-14 10:00N 38°28' E 015°55'0 0.0
2017-May-14 09:30N 38°28' E 015°55'0 0.0
2017-May-14 09:00N 38°28' E 015°55'0 0.0
2017-May-14 08:30N 38°28' E 015°55'0 0.0
2017-May-14 08:00N 38°28' E 015°55'0 0.0
2017-May-14 07:30N 38°28' E 015°55'0 0.0
2017-May-14 07:00N 38°28' E 015°55'0 0.0
2017-May-14 06:30N 38°28' E 015°55'0 0.0
2017-May-14 06:00N 38°28' E 015°55'0 0.0
2017-May-14 05:30N 38°28' E 015°55'0 0.0
2017-May-14 04:59N 38°28' E 015°55'0 0.0
2017-May-14 04:30N 38°28' E 015°55'0 0.0
2017-May-14 04:00N 38°28' E 015°55'0 0.0
2017-May-14 03:30N 38°28' E 015°55'0 0.0
2017-May-14 03:00N 38°28' E 015°55'0 0.0
2017-May-14 02:30N 38°28' E 015°55'0 0.0
2017-May-14 01:58N 38°28' E 015°55'0 0.0
2017-May-14 01:30N 38°28' E 015°55'0 0.0
2017-May-14 01:00N 38°28' E 015°55'0 0.0
2017-May-14 00:30N 38°28' E 015°55'0 0.0
2017-May-14 00:00N 38°28' E 015°55'0 0.0
2017-May-13 23:30N 38°28' E 015°55'0 0.0
2017-May-13 23:00N 38°28' E 015°55'0 0.0
2017-May-13 22:30N 38°28' E 015°55'0 0.0
2017-May-13 22:00N 38°28' E 015°55'0 0.0
2017-May-13 21:31N 38°28' E 015°54'2 3.1
2017-May-13 21:00N 38°27' E 015°53'1 2.4
2017-May-13 20:30N 38°27' E 015°52'713.2
2017-May-13 20:00N 38°32' E 015°46'714.5
2017-May-13 19:30N 38°38' E 015°41'0 0.4
2017-May-13 18:59N 38°38' E 015°41'0 0.2
2017-May-13 18:30N 38°38' E 015°41'0 0.2
2017-May-13 18:00N 38°38' E 015°41'0 0.2
2017-May-13 17:30N 38°38' E 015°42'0 0.1
2017-May-13 17:00N 38°38' E 015°42'0 0.3
2017-May-13 16:30N 38°39' E 015°41'0 0.2
2017-May-13 15:59N 38°39' E 015°41'0 0.2
2017-May-13 15:30N 38°39' E 015°41'0 0.3
2017-May-13 14:59N 38°38' E 015°41'0 0.3
2017-May-13 14:30N 38°38' E 015°41'0 0.3
2017-May-13 13:30N 38°38' E 015°41'0 0.3
2017-May-13 13:00N 38°38' E 015°41'0 0.4
2017-May-13 12:30N 38°38' E 015°41'0 0.3
2017-May-13 12:00N 38°38' E 015°40'0 0.4
2017-May-13 11:31N 38°37' E 015°40'0 0.5
2017-May-13 11:00N 38°37' E 015°40'0 0.5
2017-May-13 10:31N 38°37' E 015°40'0 0.6
2017-May-13 10:01N 38°37' E 015°40'0 0.7
2017-May-13 09:30N 38°36' E 015°40'0 0.7
2017-May-13 09:00N 38°36' E 015°40'0 0.9
2017-May-13 08:31N 38°36' E 015°40'0 0.8
2017-May-13 08:00N 38°35' E 015°40'0 0.7
2017-May-13 07:31N 38°35' E 015°41'0 0.8
2017-May-13 07:01N 38°35' E 015°41'0 0.8
2017-May-13 06:30N 38°34' E 015°41'0 1.0
2017-May-13 06:00N 38°34' E 015°42'1 1.1
2017-May-13 05:31N 38°33' E 015°42'0 0.9
2017-May-13 05:00N 38°33' E 015°42'0 0.9
2017-May-13 04:30N 38°33' E 015°43'0 1.0
2017-May-13 04:01N 38°32' E 015°43'0 0.9
2017-May-13 03:31N 38°32' E 015°44'0 0.9
2017-May-13 03:01N 38°32' E 015°44'0 0.7
2017-May-13 02:30N 38°32' E 015°45'0 0.8
2017-May-13 02:00N 38°31' E 015°45'0 0.7
2017-May-13 01:30N 38°31' E 015°45'0 0.8
2017-May-13 01:00N 38°31' E 015°45'0 0.6
2017-May-13 00:30N 38°30' E 015°45'0 0.8
2017-May-13 00:00N 38°30' E 015°45'0 0.6
2017-May-12 23:31N 38°30' E 015°45'0 0.7
2017-May-12 23:01N 38°29' E 015°45'0 0.5
2017-May-12 22:30N 38°29' E 015°45'0 0.8
2017-May-12 22:01N 38°29' E 015°44'1 1.6
2017-May-12 21:30N 38°30' E 015°44'612.5
2017-May-12 21:00N 38°35' E 015°41'3 6.2
2017-May-12 20:30N 38°38' E 015°39'0 0.9
2017-May-12 20:00N 38°38' E 015°38'0 0.9
2017-May-12 19:30N 38°37' E 015°38'0 0.9
2017-May-12 19:00N 38°37' E 015°38'0 0.9
2017-May-12 18:30N 38°36' E 015°37'0 0.9
2017-May-12 18:00N 38°36' E 015°37'0 0.8
2017-May-12 17:31N 38°36' E 015°37'0 0.8
2017-May-12 17:01N 38°35' E 015°38'0 0.9
2017-May-12 16:31N 38°35' E 015°38'0 1.0
2017-May-12 16:00N 38°35' E 015°39'0 0.9
2017-May-12 15:30N 38°35' E 015°39'0 0.9
2017-May-12 15:00N 38°34' E 015°40'0 1.0
2017-May-12 14:30N 38°34' E 015°40'1 1.1
2017-May-12 13:30N 38°33' E 015°41'0 0.8
2017-May-12 13:00N 38°33' E 015°41'0 0.8
2017-May-12 12:29N 38°32' E 015°41'0 0.6
2017-May-12 12:01N 38°32' E 015°42'0 0.5
2017-May-12 11:31N 38°32' E 015°42'0 0.3
2017-May-12 10:59N 38°32' E 015°42'0 0.3
2017-May-12 10:30N 38°32' E 015°42'0 0.6
2017-May-12 10:01N 38°32' E 015°43'0 0.5
2017-May-12 09:31N 38°32' E 015°43'0 0.6
2017-May-12 09:00N 38°31' E 015°43'0 0.8
2017-May-12 08:31N 38°31' E 015°43'0 0.7
2017-May-12 08:00N 38°31' E 015°43'0 0.4
2017-May-12 07:31N 38°31' E 015°43'0 0.6
2017-May-12 07:00N 38°30' E 015°43'0 0.6
2017-May-12 06:31N 38°30' E 015°43'2 4.1
2017-May-12 06:00N 38°28' E 015°43'714.4
2017-May-12 05:30N 38°21' E 015°42'612.5
2017-May-12 05:00N 38°15' E 015°40'611.9
2017-May-12 04:30N 38°10' E 015°36'612.2
2017-May-12 04:00N 38°03' E 015°36'612.5
2017-May-12 03:30N 37°57' E 015°37'612.6
2017-May-12 03:00N 37°52' E 015°41'713.1
2017-May-12 02:30N 37°50' E 015°49'713.6
2017-May-12 02:00N 37°48' E 015°57'713.7
2017-May-12 01:30N 37°46' E 016°05'11413.4
2017-May-11 17:00N 37°18' E 018°24'713.6
2017-May-11 16:29N 37°16' E 018°33'251 9.6
2017-May-10 14:31N 37°09' E 023°47'813.9
2017-May-10 13:57N 37°15' E 023°53'4 9.7
2017-May-10 13:29N 37°19' E 023°56'5 9.1
2017-May-10 12:58N 37°23' E 023°59'4 9.2
2017-May-10 12:30N 37°26' E 024°02'2012.1
2017-May-10 10:48N 37°43' E 024°16'  

Dump ship's entire track history